createdAt,value
2022-08-14T00:04:32.212Z,15.60
2022-08-14T00:09:10.124Z,15.50
2022-08-14T00:13:54.528Z,15.20
2022-08-14T00:19:18.734Z,15.10
2022-08-14T00:23:41.619Z,15.30
2022-08-14T00:28:32.509Z,15.40
2022-08-14T00:33:16.927Z,15.40
2022-08-14T00:38:01.009Z,15.20
2022-08-14T00:42:54.919Z,15.10
2022-08-14T00:47:42.965Z,15.30
2022-08-14T00:52:28.825Z,15.00
2022-08-14T00:57:12.552Z,15.00
2022-08-14T01:01:58.754Z,15.00
2022-08-14T01:06:45.377Z,14.90
2022-08-14T01:11:35.438Z,14.80
2022-08-14T01:16:22.460Z,14.80
2022-08-14T01:21:16.251Z,14.70
2022-08-14T01:26:02.125Z,14.70
2022-08-14T01:30:49.246Z,14.60
2022-08-14T01:36:04.909Z,14.90
2022-08-14T01:40:41.955Z,14.70
2022-08-14T01:45:27.260Z,14.60
2022-08-14T01:50:11.752Z,14.30
2022-08-14T01:54:58.575Z,14.20
2022-08-14T01:59:44.439Z,14.30
2022-08-14T02:04:55.548Z,14.10
2022-08-14T02:09:38.789Z,14.00
2022-08-14T02:14:31.437Z,13.80
2022-08-14T02:19:17.091Z,13.80
2022-08-14T02:24:03.591Z,13.60
2022-08-14T02:28:58.406Z,13.80
2022-08-14T02:33:43.753Z,13.80
2022-08-14T02:38:30.217Z,13.60
2022-08-14T02:43:22.510Z,13.40
2022-08-14T02:48:10.663Z,13.40
2022-08-14T02:53:12.530Z,13.30
2022-08-14T02:58:03.662Z,13.50
2022-08-14T03:02:59.175Z,13.50
2022-08-14T03:07:43.735Z,13.70
2022-08-14T03:12:32.084Z,13.70
2022-08-14T03:17:16.159Z,13.70
2022-08-14T03:22:03.305Z,13.60
2022-08-14T03:26:57.748Z,13.40
2022-08-14T03:31:42.034Z,13.20
2022-08-14T03:37:38.144Z,13.40
2022-08-14T03:41:33.132Z,13.30
2022-08-14T03:46:39.221Z,13.20
2022-08-14T03:51:23.650Z,13.10
2022-08-14T03:56:08.039Z,13.00
2022-08-14T04:00:53.037Z,12.90
2022-08-14T04:05:43.485Z,12.80
2022-08-14T04:10:33.222Z,12.80
2022-08-14T04:15:19.066Z,12.60
2022-08-14T04:20:06.967Z,12.70
2022-08-14T04:24:54.101Z,12.90
2022-08-14T04:29:39.526Z,12.90
2022-08-14T04:34:27.973Z,13.00
2022-08-14T04:39:30.594Z,12.90
2022-08-14T04:44:36.201Z,12.90
2022-08-14T04:49:19.519Z,13.00
2022-08-14T04:54:03.230Z,13.00
2022-08-14T04:58:48.520Z,13.00
2022-08-14T05:03:34.470Z,13.10
2022-08-14T05:08:43.751Z,13.30
2022-08-14T05:13:31.824Z,13.50
2022-08-14T05:18:37.186Z,13.70
2022-08-14T05:23:39.166Z,13.80
2022-08-14T05:28:27.592Z,13.90
2022-08-14T05:33:13.235Z,14.00
2022-08-14T05:37:58.779Z,14.10
2022-08-14T05:42:42.276Z,14.20
2022-08-14T05:47:39.082Z,14.40
2022-08-14T05:52:38.627Z,14.80
2022-08-14T05:57:24.919Z,15.20
2022-08-14T06:02:09.998Z,15.60
2022-08-14T06:06:54.596Z,16.00
2022-08-14T06:11:41.398Z,16.50
2022-08-14T06:16:28.056Z,17.00
2022-08-14T06:21:13.742Z,17.50
2022-08-14T06:25:57.763Z,18.10
2022-08-14T06:30:47.120Z,18.60
2022-08-14T06:35:32.256Z,19.00
2022-08-14T06:40:27.305Z,19.30
2022-08-14T06:45:12.765Z,19.70
2022-08-14T06:49:58.727Z,20.30
2022-08-14T06:54:43.969Z,20.80
2022-08-14T06:59:28.385Z,21.10
2022-08-14T07:04:29.299Z,21.50
2022-08-14T07:09:22.413Z,21.80
2022-08-14T07:14:07.985Z,22.10
2022-08-14T07:18:53.923Z,22.20
2022-08-14T07:23:40.205Z,22.70
2022-08-14T07:28:30.024Z,23.20
2022-08-14T07:33:15.194Z,23.60
2022-08-14T07:37:58.769Z,23.90
2022-08-14T07:42:43.293Z,24.30
2022-08-14T07:47:29.810Z,24.70
2022-08-14T07:52:15.032Z,25.20
2022-08-14T07:57:12.522Z,25.60
2022-08-14T08:02:01.939Z,26.20
2022-08-14T08:06:46.649Z,26.40
2022-08-14T08:11:37.218Z,26.80
2022-08-14T08:16:24.642Z,27.10
2022-08-14T08:21:09.651Z,27.10
2022-08-14T08:25:56.111Z,27.50
2022-08-14T08:30:49.683Z,27.90
2022-08-14T08:35:46.509Z,28.20
2022-08-14T08:40:35.902Z,28.60
2022-08-14T08:45:26.022Z,28.30
2022-08-14T08:50:31.062Z,28.90
2022-08-14T08:55:14.980Z,29.50
2022-08-14T08:59:59.051Z,29.90
2022-08-14T09:04:45.584Z,30.10
2022-08-14T09:09:54.249Z,29.70
2022-08-14T09:14:42.511Z,30.20
2022-08-14T09:19:26.062Z,30.60
2022-08-14T09:24:29.414Z,31.00
2022-08-14T09:29:16.283Z,31.30
2022-08-14T09:34:27.314Z,31.60
2022-08-14T09:39:22.907Z,32.00
2022-08-14T09:44:16.422Z,32.20
2022-08-14T09:49:16.228Z,32.50
2022-08-14T09:54:19.661Z,32.60
2022-08-14T09:59:15.430Z,32.80
2022-08-14T10:04:00.509Z,32.70
2022-08-14T10:08:50.981Z,33.20
2022-08-14T10:13:42.996Z,33.40
2022-08-14T10:18:37.356Z,32.70
2022-08-14T10:23:23.281Z,33.30
2022-08-14T10:28:08.919Z,34.00
2022-08-14T10:33:12.428Z,34.90
2022-08-14T10:38:01.867Z,35.20
2022-08-14T10:42:47.115Z,35.20
2022-08-14T10:48:07.150Z,35.80
2022-08-14T10:52:43.219Z,36.00
2022-08-14T10:57:28.602Z,36.30
2022-08-14T11:02:22.268Z,36.50
2022-08-14T11:07:21.896Z,36.70
2022-08-14T11:12:33.146Z,35.70
2022-08-14T11:17:09.467Z,35.60
2022-08-14T11:21:56.124Z,34.90
2022-08-14T11:26:43.394Z,34.70
2022-08-14T11:31:35.540Z,34.70
2022-08-14T11:36:57.072Z,34.80
2022-08-14T11:41:30.356Z,34.80
2022-08-14T11:46:30.528Z,35.30
2022-08-14T11:51:30.773Z,35.90
2022-08-14T11:56:25.650Z,36.10
2022-08-14T12:01:13.151Z,36.70
2022-08-14T12:06:09.518Z,36.00
2022-08-14T12:11:14.370Z,36.20
2022-08-14T12:16:06.524Z,35.90
2022-08-14T12:21:00.184Z,35.30
2022-08-14T12:25:45.279Z,35.50
2022-08-14T12:30:44.928Z,35.50
2022-08-14T12:35:39.713Z,36.30
2022-08-14T12:40:25.436Z,36.40
2022-08-14T12:45:16.744Z,36.50
2022-08-14T12:50:01.553Z,37.00
2022-08-14T12:55:01.642Z,36.80
2022-08-14T12:59:50.613Z,36.60
2022-08-14T13:04:36.898Z,36.60
2022-08-14T13:09:23.160Z,36.00
2022-08-14T13:14:07.615Z,35.40
2022-08-14T13:19:02.002Z,35.00
2022-08-14T13:23:49.233Z,34.40
2022-08-14T13:28:41.262Z,34.10
2022-08-14T13:33:40.365Z,33.70
2022-08-14T13:38:25.680Z,33.50
2022-08-14T13:43:15.015Z,33.00
2022-08-14T13:47:58.900Z,32.90
2022-08-14T13:52:52.614Z,32.80
2022-08-14T13:57:49.622Z,31.90
2022-08-14T14:02:46.387Z,32.00
2022-08-14T14:07:32.419Z,31.80
2022-08-14T14:12:37.241Z,31.70
2022-08-14T14:17:24.664Z,31.90
2022-08-14T14:22:09.955Z,32.20
2022-08-14T14:26:53.925Z,33.20
2022-08-14T14:31:40.613Z,33.10
2022-08-14T14:36:26.734Z,32.60
2022-08-14T14:41:17.628Z,32.10
2022-08-14T14:46:04.917Z,31.70
2022-08-14T14:50:53.224Z,31.90
2022-08-14T14:55:43.065Z,32.80
2022-08-14T15:00:44.208Z,33.70
2022-08-14T15:05:28.889Z,34.40
2022-08-14T15:10:26.878Z,34.20
2022-08-14T15:15:16.278Z,33.30
2022-08-14T15:20:03.634Z,33.50
2022-08-14T15:24:50.871Z,33.50
2022-08-14T15:29:38.816Z,33.40
2022-08-14T15:34:44.933Z,33.30
2022-08-14T15:39:35.839Z,34.00
2022-08-14T15:44:26.447Z,34.10
2022-08-14T15:49:11.152Z,34.20
2022-08-14T15:53:54.698Z,34.30
2022-08-14T15:58:39.787Z,34.40
2022-08-14T16:03:27.967Z,34.00
2022-08-14T16:08:29.511Z,33.90
2022-08-14T16:13:17.252Z,33.30
2022-08-14T16:18:20.326Z,32.90
2022-08-14T16:23:10.363Z,33.00
2022-08-14T16:27:55.421Z,32.60
2022-08-14T16:32:55.532Z,32.40
2022-08-14T16:37:43.871Z,31.30
2022-08-14T16:42:38.946Z,31.10
2022-08-14T16:47:35.072Z,31.30
2022-08-14T16:52:26.278Z,31.10
2022-08-14T16:57:27.975Z,31.10
2022-08-14T17:02:18.722Z,30.80
2022-08-14T17:07:03.551Z,29.90
2022-08-14T17:11:54.428Z,29.60
2022-08-14T17:16:39.743Z,29.30
2022-08-14T17:21:31.226Z,28.70
2022-08-14T17:26:34.180Z,28.60
2022-08-14T17:31:17.666Z,28.40
2022-08-14T17:36:21.030Z,28.30
2022-08-14T17:41:23.675Z,28.10
2022-08-14T17:46:12.673Z,27.90
2022-08-14T17:51:01.815Z,27.50
2022-08-14T17:56:01.782Z,27.10
2022-08-14T18:00:49.904Z,27.00
2022-08-14T18:06:09.454Z,26.70
2022-08-14T18:10:55.522Z,26.50
2022-08-14T18:15:44.565Z,26.20
2022-08-14T18:21:42.320Z,25.80
2022-08-14T18:25:48.494Z,25.40
2022-08-14T18:30:40.147Z,25.20
2022-08-14T18:35:59.100Z,25.10
2022-08-14T18:40:43.685Z,25.00
2022-08-14T18:45:29.538Z,24.80
2022-08-14T18:50:27.495Z,24.60
2022-08-14T18:55:53.460Z,24.50
2022-08-14T19:00:51.379Z,24.30
2022-08-14T19:05:59.435Z,24.30
2022-08-14T19:10:45.596Z,24.20
2022-08-14T19:15:40.017Z,24.10
2022-08-14T19:20:24.426Z,24.00
2022-08-14T19:25:10.032Z,24.00
2022-08-14T19:30:24.493Z,24.00
2022-08-14T19:35:49.888Z,24.00
2022-08-14T19:40:40.444Z,24.00
2022-08-14T19:45:25.925Z,24.10
2022-08-14T19:50:37.850Z,24.10
2022-08-14T19:55:17.317Z,24.00
2022-08-14T20:00:27.935Z,24.00
2022-08-14T20:05:15.345Z,23.80
2022-08-14T20:11:08.565Z,23.70
2022-08-14T20:15:08.967Z,23.70
2022-08-14T20:19:52.781Z,23.80
2022-08-14T20:24:41.245Z,24.00
2022-08-14T20:29:32.450Z,23.60
2022-08-14T20:34:25.160Z,23.50
2022-08-14T20:39:19.952Z,23.40
2022-08-14T20:44:28.663Z,23.50
2022-08-14T20:49:16.328Z,23.30
2022-08-14T20:54:03.096Z,23.30
2022-08-14T20:58:46.651Z,23.10
2022-08-14T21:03:37.890Z,23.00
2022-08-14T21:08:43.079Z,23.00
2022-08-14T21:14:21.001Z,23.00
2022-08-14T21:18:44.945Z,23.00
2022-08-14T21:23:32.569Z,22.80
2022-08-14T21:28:29.391Z,22.50
2022-08-14T21:33:14.278Z,22.40
2022-08-14T21:37:59.393Z,22.40
2022-08-14T21:42:43.665Z,22.40
2022-08-14T21:47:31.468Z,22.40
2022-08-14T21:52:51.528Z,22.40
2022-08-14T21:58:38.393Z,22.50
2022-08-14T22:02:32.763Z,22.20
2022-08-14T22:07:18.078Z,22.00
2022-08-14T22:12:02.213Z,21.90
2022-08-14T22:17:02.257Z,21.90
2022-08-14T22:21:55.941Z,21.90
2022-08-14T22:26:44.926Z,21.80
2022-08-14T22:31:35.172Z,21.60
2022-08-14T22:36:45.186Z,21.30
2022-08-14T22:41:42.477Z,21.20
2022-08-14T22:46:27.662Z,21.20
2022-08-14T22:51:13.377Z,21.20
2022-08-14T22:55:59.415Z,21.20
2022-08-14T23:00:43.998Z,21.10
2022-08-14T23:05:39.177Z,21.00
2022-08-14T23:10:34.637Z,21.10
2022-08-14T23:15:22.795Z,21.10
2022-08-14T23:20:07.607Z,20.90
2022-08-14T23:25:03.062Z,21.00
2022-08-14T23:29:46.665Z,20.80
2022-08-14T23:34:39.504Z,20.70
2022-08-14T23:39:34.787Z,20.50
2022-08-14T23:44:21.608Z,20.50
2022-08-14T23:49:05.799Z,20.60
2022-08-14T23:53:52.279Z,20.70
2022-08-14T23:58:37.020Z,20.70
